Hazard, Nebraska
Current Conditions -  °F | °C
As of 11:55 PM on Thursday 30 Oct 2014 (Local Time) from KEAR Reporting Station
Clear Clear  
Wind Chill: 31°   Ceiling: Unl
Heat Index: 37°   Visibility: 10mi
Dew Point: 30°   Wind: 9mph
Humidity: 75%   Direction: 330°NNW
Pressure: 30.43"   Gusts: NA
Location:  41.09°N, 99.08°W
Report Text: KEAR 310455Z 33008KT 10SM CLR 03/M01 A3043 RMK AO1
Loading
Personal Weather Stations






























Interactive Weather Map
Tropical Storm Tracking
New forecast layout! Learn more

10-Day Weather Forecast

Advertisements
Track Severe Weather on mobile